Tiempo atmosférico en la estación meteorológica de El Bosque, Cádiz (295 m.)



Fecha
DESCASC
Temp. máxima en grados centígrados (hora)
DESCASC
Temp. mínima en grados centígrados (hora)
DESCASC
Temp. media en grados centígrados
DESCASC
Racha de viento máxima en m/sg (hora)
DESCASC
Velocidad máxima media en intervalos de 10 minutos(hora)
DESCASC
Precipitaciones diarias en mm
DESCASC
Precipitaciones de 00:00 a 06:00 en mm
DESCASC
Precipitaciones de 06:00 a 12:00 en mm
DESCASC
Precipitaciones de 12:00 a 18:00 en mm
DESCASC
Precipitaciones de 18:00 a 24:00 en mm
DESCASC
22-11-2020 19.8 (13:50) 7.1 (23:10) 13.4 8.61 (14:10) 5.28 (14:20) 0 0 0 0 0
21-11-2020 19.9 (12:20) 10.4 (05:10) 15.1 11.39 (14:30) 7.22 (14:30) 0 0 0 0 0
20-11-2020 23.2 (16:00) 9.9 (08:30) 16.6 6.11 (19:40) 3.61 (19:40) 0 0 0 0 0
19-11-2020 24.8 (14:40) 10.1 (00:00) 17.4 6.11 (16:00) 3.89 (15:30) 0 0 0 0 0
18-11-2020 23.4 (14:10) 11.5 (00:00) 17.4 7.22 (09:10) 4.44 (22:30) 0 0 0 0 0
17-11-2020 25.3 (15:10) 11.4 (00:00) 18.3 3.61 (15:50) 2.22 (15:50) 0 0 0 0 0
16-11-2020 24.5 (16:00) 12.8 (00:00) 18.7 6.39 (01:50) 4.72 (01:50) 0 0 0 0 0
15-11-2020 26 (15:50) 13.2 (00:00) 19.6 7.22 (19:20) 5 (19:20) 0 0 0 0 0
14-11-2020 19.3 (14:40) 14.4 (00:00) 16.8 6.67 (13:20) 4.44 (13:20) 2.4 0.2 1.8 0.2 0.2
13-11-2020 20.7 (12:50) 15.2 (00:00) 18 11.11 (04:40) 6.39 (03:20) 0 0 0 0 0
12-11-2020 21.2 (15:00) 11 (00:00) 16.1 9.44 (15:40) 5.56 (15:40) 0 0 0 0 0
11-11-2020 21.6 (13:20) 10.7 (00:00) 16.2 9.44 (13:40) 5.56 (11:00) 0 0 0 0 0
10-11-2020 22.2 (16:40) 7.8 (00:00) 15 3.89 (15:10) 2.22 (20:30) 0 0 0 0 0
09-11-2020 20.3 (15:10) 10.5 (00:00) 15.4 6.39 (09:50) 4.17 (09:50) 0.6 0 0.6 0 0
08-11-2020 22 (14:30) 11.8 (00:00) 16.9 8.06 (12:10) 4.72 (12:10) 0 0 0 0 0
07-11-2020 20.1 (15:30) 12.1 (00:00) 16.1 18.61 (00:20) 11.11 (03:10) 10.6 6 4.6 0 0
06-11-2020 25.1 (11:50) 14.6 (00:00) 19.9 17.22 (23:20) 11.39 (08:50) 1.6 0 0 0 1.6
05-11-2020 21.6 (14:50) 14 (00:00) 17.8 19.72 (04:00) 10 (20:20) 19.8 15.6 4.2 0 0
04-11-2020 19 (13:10) 14.9 (00:00) 16.9 14.17 (23:00) 8.89 (22:30) 4.2 0 0.4 0.4 3.4
03-11-2020 24.8 (14:10) 11.5 (00:00) 18.1 4.17 (15:20) 2.22 (14:40) 0 0 0 0 0
02-11-2020 27.2 (16:20) 12.2 (00:00) 19.7 5 (13:50) 2.78 (14:50) 0 0 0 0 0
01-11-2020 27 (15:40) 11.4 (00:00) 19.2 4.17 (14:20) 2.78 (14:20) 0 0 0 0 0
31-10-2020 25.5 (15:10) 11.3 (00:00) 18.4 5.56 (16:10) 2.78 (16:10) 0 0 0 0 0
30-10-2020 25.8 (13:00) 12.1 (00:00) 18.9 7.78 (13:30) 4.17 (13:30) 0 0 0 0 0
29-10-2020 27.2 (15:20) 10.9 (00:00) 19.1 6.94 (15:40) 3.89 (16:00) 0 0 0 0 0
28-10-2020 23.6 (16:20) 7 (00:00) 15.3 5.83 (14:40) 2.78 (15:50) 0 0 0 0 0
27-10-2020 19.6 (15:20) 5.8 (00:00) 12.7 7.22 (13:40) 4.72 (13:00) 0 0 0 0 0
26-10-2020 16.6 (00:00) 8.6 (00:00) 12.6 11.39 (00:30) 5.83 (00:30) 6.8 6.8 0 0 0

Gráficas

Temp. máximas Temp. mínimas Temp. medias Precipitaciones Rachas de viento máximas Velocidades máximas media en intervalos de 10 minutos

Datos horarios

Fecha y hora oficial Temperatura (ºC) Velocidad del viento (km/h) Dirección del viento Racha (km/h) Dirección de racha Precipitación (mm) Presión (hPa) Tendencia (hPa) Humedad (%)
2020-11-24 23:00:00 14.5 7 Sur 13 Sur 0 -- -- 79
2020-11-24 22:00:00 14.4 11 Sur 34 Sur 0 -- -- 80
2020-11-24 21:00:00 15.7 16 Sudeste 27 Sudeste 0 -- -- 70
2020-11-24 20:00:00 15.3 11 Sudeste 29 Este 0 -- -- 70
2020-11-24 19:00:00 15.6 12 Sudeste 21 Sudeste 0 -- -- 68
2020-11-24 18:00:00 15.8 13 Sudeste 21 Sudeste 0 -- -- 66
2020-11-24 17:00:00 17.2 12 Sudeste 25 Sudeste 0 -- -- 60
2020-11-24 16:00:00 18.5 14 Sur 23 Sur 0 -- -- 55
2020-11-24 15:00:00 19.2 9 Sur 25 Sudeste 0 -- -- 53
2020-11-24 14:00:00 19 12 Sur 24 Sudeste 0 -- -- 54
2020-11-24 13:00:00 18.6 12 Sur 27 Sudeste 0 -- -- 56
2020-11-24 12:00:00 18.2 13 Sudeste 32 Este 0 -- -- 54
2020-11-24 11:00:00 16.9 16 Sudeste 32 Este 0 -- -- 58
2020-11-24 10:00:00 15.2 10 Sudeste 29 Este 0 -- -- 63
2020-11-24 09:00:00 11.8 17 Sudeste 29 Este 0 -- -- 70
2020-11-24 08:00:00 11.6 19 Sudeste 33 Sudeste 0 -- -- 70
2020-11-24 07:00:00 12.8 18 Este 37 Este 0 -- -- 64
2020-11-24 06:00:00 12.7 20 Este 35 Este 0 -- -- 60
2020-11-24 05:00:00 12.7 17 Este 31 Sudeste 0 -- -- 57
2020-11-24 04:00:00 12.1 18 Este 31 Este 0 -- -- 58
2020-11-24 03:00:00 10.3 12 Sudeste 22 Este 0 -- -- 63
2020-11-24 02:00:00 9.7 8 Sudeste 12 Sudeste 0 -- -- 61
2020-11-24 01:00:00 10 5 Sudeste 13 Sudeste 0 -- -- 59
2020-11-24 00:00:00 9.2 7 Sudeste 17 Este 0 -- -- 67
2020-11-23 23:00:00 9.7 8 Este 16 Sudeste 0 -- -- 69
2020-11-23 22:00:00 10 5 Sudeste 12 Sudeste 0 -- -- 74
2020-11-23 21:00:00 10.5 5 Este 17 Sudeste 0 -- -- 76
2020-11-23 20:00:00 11.5 9 Sudeste 15 Sudeste 0 -- -- 74
2020-11-23 19:00:00 13.2 9 Sur 26 Sur 0 -- -- 66
2020-11-23 18:00:00 15.2 14 Sur 26 Sur 0 -- -- 62
2020-11-23 17:00:00 17.5 12 Sur 29 Sudoeste 0 -- -- 55
2020-11-23 16:00:00 18.2 17 Sur 28 Sur 0 -- -- 55
2020-11-23 15:00:00 18.2 18 Sur 33 Sur 0 -- -- 52
2020-11-23 14:00:00 18.5 18 Sur 33 Sur 0 -- -- 51
2020-11-23 13:00:00 18.3 15 Sur 27 Sur 0 -- -- 49
2020-11-23 12:00:00 16.8 2 Norte 9 Norte 0 -- -- 52
2020-11-23 11:00:00 14.2 3 Noroeste 7 Este 0 -- -- 59
2020-11-23 10:00:00 11.6 5 Este 10 Este 0 -- -- 66
2020-11-23 09:00:00 8.2 5 Este 10 Este 0 -- -- 74
2020-11-23 08:00:00 6.6 0 Calma 13 Este 0 -- -- 78
2020-11-23 07:00:00 6.6 10 Este 13 Este 0 -- -- 76
2020-11-23 06:00:00 6 3 Nordeste 13 Sudeste 0 -- -- 79
2020-11-23 05:00:00 7 6 Este 12 Este 0 -- -- 74
2020-11-23 04:00:00 6.5 5 Este 12 Este 0 -- -- 76
2020-11-23 03:00:00 7.2 2 Este 10 Este 0 -- -- 73
2020-11-23 02:00:00 7.4 7 Este 15 Sudeste 0 -- -- 72
2020-11-23 01:00:00 6.9 2 Este 14 Sudeste 0 -- -- 76
2020-11-23 00:00:00 7.7 8 Este 14 Este 0 -- -- 74
2020-11-22 23:00:00 7.2 6 Este 15 Este 0 -- -- 81
2020-11-22 22:00:00 8.3 8 Este 14 Este 0 -- -- 80
2020-11-22 21:00:00 9.2 8 Sudeste 13 Este 0 -- -- 79
2020-11-22 20:00:00 11.2 5 Este 15 Este 0 -- -- 72
2020-11-22 19:00:00 13.8 5 Este 13 Este 0 -- -- 62
2020-11-22 18:00:00 16.7 7 Sudeste 20 Este 0 -- -- 52
2020-11-22 17:00:00 18.9 6 Sudeste 26 Sur 0 -- -- 44
2020-11-22 16:00:00 19.1 14 Sur 27 Sur 0 -- -- 45
2020-11-22 15:00:00 19.4 15 Sur 31 Sur 0 -- -- 43
2020-11-22 14:00:00 19.4 17 Sur 29 Sur 0 -- -- 44
2020-11-22 13:00:00 18.5 3 Noroeste 11 Norte 0 -- -- 51
2020-11-22 12:00:00 17.2 5 Norte 12 Nordeste 0 -- -- 52
2020-11-22 11:00:00 15.5 5 Norte 10 Norte 0 -- -- 58
2020-11-22 10:00:00 13.3 0 Calma 3 Este 0 -- -- 69
2020-11-22 09:00:00 9.3 2 Nordeste 8 Este 0 -- -- 79
2020-11-22 08:00:00 8.9 0 Calma 10 Este 0 -- -- 77
2020-11-22 07:00:00 9.2 7 Este 10 Este 0 -- -- 74
2020-11-22 06:00:00 9.3 0 Calma 4 Sudeste 0 -- -- 78
2020-11-22 05:00:00 10.2 2 Norte 3 Nordeste 0 -- -- 76
2020-11-22 04:00:00 10.6 0 Calma 4 Norte 0 -- -- 76
2020-11-22 03:00:00 11.8 2 Noroeste 7 Sudoeste 0 -- -- 70
2020-11-22 02:00:00 12.9 4 Sudeste 13 Este 0 -- -- 68
2020-11-22 01:00:00 12.9 4 Sudeste 9 Sudeste 0 -- -- 66
2020-11-22 00:00:00 12.1 3 Sudeste 7 Sur 0 -- -- 70
2020-11-21 23:00:00 11.9 2 Sudeste 7 Noroeste 0 -- -- 70
2020-11-21 22:00:00 12.2 2 Noroeste 12 Sudeste 0 -- -- 69
2020-11-21 21:00:00 13.4 8 Sudeste 11 Sudeste 0 -- -- 65
2020-11-21 20:00:00 14.2 5 Sudeste 15 Sudeste 0 -- -- 62
2020-11-21 19:00:00 15.3 12 Sudeste 22 Este 0 -- -- 60
2020-11-21 18:00:00 17 14 Sudeste 31 Sur 0 -- -- 56
2020-11-21 17:00:00 18.6 17 Sudeste 31 Sur 0 -- -- 52
2020-11-21 16:00:00 19 19 Sudeste 32 Sudeste 0 -- -- 54
2020-11-21 15:00:00 19.6 20 Sudeste 41 Sudeste 0 -- -- 55
2020-11-21 14:00:00 19.6 21 Sudeste 36 Sudeste 0 -- -- 56
2020-11-21 13:00:00 19.7 24 Sudeste 34 Sudeste 0 -- -- 58
2020-11-21 12:00:00 19.6 21 Sudeste 40 Sudeste 0 -- -- 58
2020-11-21 11:00:00 18.8 21 Sudeste 31 Sudeste 0 -- -- 64
2020-11-21 10:00:00 15.7 4 Noroeste 10 Sudeste 0 -- -- 69
2020-11-21 09:00:00 13.5 4 Sur 14 Este 0 -- -- 78
2020-11-21 08:00:00 13.4 6 Sur 14 Sudeste 0 -- -- 75
2020-11-21 07:00:00 12.5 8 Sudeste 17 Este 0 -- -- 77
2020-11-21 06:00:00 11.3 10 Sudeste 15 Este 0 -- -- 80
2020-11-21 05:00:00 10.5 8 Este 15 Este 0 -- -- 83
2020-11-21 04:00:00 11.1 10 Sudeste 15 Sudeste 0 -- -- 82
2020-11-21 03:00:00 11.4 0 Calma 12 Este 0 -- -- 85
2020-11-21 02:00:00 11.1 8 Este 13 Este 0 -- -- 86
2020-11-21 01:00:00 11.8 0 Calma 12 Sudeste 0 -- -- 86
2020-11-21 00:00:00 12 10 Sudeste 15 Sudeste 0 -- -- 87
2020-11-20 23:00:00 11.9 3 Este 11 Sudeste 0 -- -- 89
2020-11-20 22:00:00 12.5 4 Sudeste 14 Este 0 -- -- 89
2020-11-20 21:00:00 13.8 8 Sudeste 15 Sudeste 0 -- -- 85
2020-11-20 20:00:00 15.7 10 Este 22 Este 0 -- -- 79
2020-11-20 19:00:00 16.4 11 Sudeste 17 Sudeste 0 -- -- 77
2020-11-20 18:00:00 19.1 8 Sur 15 Sur 0 -- -- 68
2020-11-20 17:00:00 21.5 10 Sudoeste 15 Sudoeste 0 -- -- 60
2020-11-20 16:00:00 23.2 6 Sudoeste 10 Sudoeste 0 -- -- 52
2020-11-20 15:00:00 22.2 5 Noroeste 10 Oeste 0 -- -- 49
2020-11-20 14:00:00 22 4 Oeste 12 Oeste 0 -- -- 50
2020-11-20 13:00:00 20.7 5 Noroeste 17 Norte 0 -- -- 55
2020-11-20 12:00:00 19.3 11 Norte 17 Noroeste 0 -- -- 59
2020-11-20 11:00:00 17.5 4 Oeste 10 Norte 0 -- -- 69
2020-11-20 10:00:00 13.2 2 Sudoeste 15 Sudeste 0 -- -- 79
2020-11-20 09:00:00 11.2 3 Este 6 Sudeste 0 -- -- 86
2020-11-20 08:00:00 10.2 3 Este 10 Este 0 -- -- 87
2020-11-20 07:00:00 10.9 5 Nordeste 12 Sudeste 0 -- -- 85
2020-11-20 06:00:00 11 2 Nordeste 17 Sudeste 0 -- -- 86
2020-11-20 05:00:00 11.8 5 Este 10 Este 0 -- -- 83
2020-11-20 04:00:00 11.7 3 Este 11 Norte 0 -- -- 85
2020-11-20 03:00:00 11.7 7 Nordeste 12 Este 0 -- -- 86
2020-11-20 02:00:00 11.5 8 Este 19 Sudeste 0 -- -- 87
2020-11-20 01:00:00 12.6 3 Nordeste 12 Este 0 -- -- 84
2020-11-20 00:00:00 11.5 4 Este 14 Sudeste 0 -- -- 88
2020-11-19 23:00:00 12.8 6 Este 11 Sudeste 0 -- -- 84
2020-11-19 22:00:00 13.4 6 Este 15 Este 0 -- -- 83
2020-11-19 21:00:00 14.2 3 Noroeste 15 Sur 0 -- -- 83
2020-11-19 20:00:00 15.7 9 Sur 18 Sudeste 0 -- -- 77
2020-11-19 19:00:00 16.5 9 Sur 13 Sur 0 -- -- 75
2020-11-19 18:00:00 18.5 5 Sur 14 Sur 0 -- -- 68
2020-11-19 17:00:00 20.5 7 Oeste 18 Sur 0 -- -- 62
2020-11-19 16:00:00 22 13 Sudoeste 22 Sudoeste 0 -- -- 58
2020-11-19 15:00:00 23.9 12 Sudoeste 18 Sudoeste 0 -- -- 50
2020-11-19 14:00:00 23.3 3 Noroeste 10 Noroeste 0 -- -- 52
2020-11-19 13:00:00 21.6 5 Noroeste 12 Noroeste 0 -- -- 56
2020-11-19 12:00:00 19.9 4 Noroeste 9 Noroeste 0 -- -- 65
2020-11-19 11:00:00 17.4 5 Noroeste 8 Noroeste 0 -- -- 67
2020-11-19 10:00:00 14.8 3 Sudeste 8 Sudeste 0 -- -- 77
2020-11-19 09:00:00 11.3 5 Este 9 Este 0 -- -- 86
2020-11-19 08:00:00 10.2 5 Este 9 Este 0 -- -- 89
2020-11-19 07:00:00 10.3 4 Este 12 Sudeste 0 -- -- 91
2020-11-19 06:00:00 11.6 6 Este 9 Este 0 -- -- 87
2020-11-19 05:00:00 11.2 2 Sudeste 6 Sudeste 0 -- -- 91
2020-11-19 04:00:00 11.4 4 Sudeste 15 Sudeste 0 -- -- 89
2020-11-19 03:00:00 12.3 4 Nordeste 13 Este 0 -- -- 90
2020-11-19 02:00:00 12.8 12 Sudeste 17 Este 0 -- -- 88
2020-11-19 01:00:00 12.8 3 Norte 14 Sudeste 0 -- -- 91
2020-11-19 00:00:00 14.1 2 Nordeste 19 Sudeste 0 -- -- 87
2020-11-18 23:00:00 14.9 13 Sudeste 25 Este 0 -- -- 84
2020-11-18 22:00:00 14.7 4 Este 22 Sudeste 0 -- -- 86
2020-11-18 21:00:00 15.3 5 Este 21 Este 0 -- -- 84
2020-11-18 20:00:00 16.1 4 Este 22 Este 0 -- -- 82
2020-11-18 19:00:00 17.4 4 Este 17 Sudeste 0 -- -- 78
2020-11-18 18:00:00 19.4 10 Sudeste 19 Sur 0 -- -- 70
2020-11-18 17:00:00 21.4 10 Sur 23 Sur 0 -- -- 63
2020-11-18 16:00:00 23 13 Sudoeste 19 Sur 0 -- -- 57
2020-11-18 15:00:00 23.3 9 Sudeste 16 Este 0 -- -- 54
2020-11-18 14:00:00 23.1 6 Sudeste 21 Sudeste 0 -- -- 56
2020-11-18 13:00:00 22 12 Sudeste 22 Este 0 -- -- 58
2020-11-18 12:00:00 20.8 10 Este 21 Este 0 -- -- 60
2020-11-18 11:00:00 19.2 12 Sudeste 25 Este 0 -- -- 66
2020-11-18 10:00:00 15.5 4 Nordeste 26 Este 0 -- -- 75
2020-11-18 09:00:00 15.3 9 Este 25 Este 0 -- -- 75
2020-11-18 08:00:00 12.4 4 Nordeste 17 Este 0 -- -- 86
2020-11-18 07:00:00 12.2 3 Nordeste 17 Sudeste 0 -- -- 87
2020-11-18 06:00:00 11.5 0 Calma 10 Sudeste 0 -- -- 85
2020-11-18 05:00:00 11.7 4 Sudeste 6 Sudeste 0 -- -- 84
2020-11-18 04:00:00 12.4 3 Nordeste 6 Nordeste 0 -- -- 89
2020-11-18 03:00:00 11.9 2 Este 9 Este 0 -- -- 88
2020-11-18 02:00:00 12.6 3 Este 8 Sudeste 0 -- -- 88
2020-11-18 01:00:00 13.2 0 Calma 9 Sudeste 0 -- -- 92
2020-11-18 00:00:00 13.8 2 Nordeste 5 Nordeste 0 -- -- 88
2020-11-17 23:00:00 14.7 3 Este 9 Este 0 -- -- 86
2020-11-17 22:00:00 15.6 3 Nordeste 7 Este 0 -- -- 85
2020-11-17 21:00:00 16.1 3 Este 8 Nordeste 0 -- -- 85
2020-11-17 20:00:00 17.8 5 Este 11 Este 0 -- -- 79
2020-11-17 19:00:00 19.1 4 Este 9 Norte 0 -- -- 74
2020-11-17 18:00:00 22 4 Norte 9 Noroeste 0 -- -- 63
2020-11-17 17:00:00 24.1 6 Noroeste 12 Oeste 0 -- -- 56
2020-11-17 16:00:00 24.4 7 Noroeste 13 Noroeste 0 -- -- 55
2020-11-17 15:00:00 24.9 4 Oeste 12 Noroeste 0 -- -- 52
2020-11-17 14:00:00 24.9 7 Oeste 12 Oeste 0 -- -- 50
2020-11-17 13:00:00 24.2 4 Oeste 9 Sudoeste 0 -- -- 51
2020-11-17 12:00:00 22.2 4 Sudoeste 8 Sudoeste 0 -- -- 55
2020-11-17 11:00:00 18.7 2 Noroeste 5 Sudoeste 0 -- -- 68
2020-11-17 10:00:00 15.6 0 Calma 5 Noroeste 0 -- -- 72
2020-11-17 09:00:00 12.9 0 Calma 3 Este 0 -- -- 83
2020-11-17 08:00:00 11.6 0 Calma 4 Sudeste 0 -- -- 85
2020-11-17 07:00:00 11.9 2 Sudeste 8 Este 0 -- -- 83
2020-11-17 06:00:00 11.8 0 Calma 3 Sudeste 0 -- -- 85
2020-11-17 05:00:00 11.8 0 Calma 4 Este 0 -- -- 86
2020-11-17 04:00:00 11.6 0 Calma 4 Sudeste 0 -- -- 86
2020-11-17 03:00:00 12 0 Calma 5 Sudeste 0 -- -- 84
2020-11-17 02:00:00 12.1 0 Calma 9 Sudeste 0 -- -- 81
2020-11-17 01:00:00 12.3 0 Calma 6 Sudeste 0 -- -- 85
2020-11-17 00:00:00 12.8 0 Calma 8 Este 0 -- -- 82
2020-11-16 23:00:00 13.9 3 Este 6 Sudeste 0 -- -- 79
2020-11-16 22:00:00 14.3 0 Calma 12 Este 0 -- -- 82
2020-11-16 21:00:00 15.8 6 Este 8 Este 0 -- -- 81
2020-11-16 20:00:00 17 4 Este 7 Sudeste 0 -- -- 82
2020-11-16 19:00:00 18.8 4 Noroeste 7 Noroeste 0 -- -- 79
2020-11-16 18:00:00 21.5 2 Noroeste 11 Oeste 0 -- -- 67
2020-11-16 17:00:00 23.2 4 Noroeste 11 Noroeste 0 -- -- 55
2020-11-16 16:00:00 24.5 5 Oeste 13 Sudoeste 0 -- -- 53
2020-11-16 15:00:00 23.6 7 Norte 12 Noroeste 0 -- -- 53
2020-11-16 14:00:00 24 5 Noroeste 13 Noroeste 0 -- -- 51
2020-11-16 13:00:00 23.7 5 Oeste 9 Oeste 0 -- -- 50
2020-11-16 12:00:00 22 2 Oeste 6 Oeste 0 -- -- 58
2020-11-16 11:00:00 18.5 0 Calma 6 Noroeste 0 -- -- 73
2020-11-16 10:00:00 15.5 2 Sur 8 Sudeste 0 -- -- 78
2020-11-16 09:00:00 14.1 4 Norte 7 Norte 0 -- -- 81
2020-11-16 08:00:00 13.2 0 Calma 5 Norte 0 -- -- 81
2020-11-16 07:00:00 13.7 0 Calma 10 Este 0 -- -- 79
2020-11-16 06:00:00 14.9 6 Sudeste 8 Este 0 -- -- 73
2020-11-16 05:00:00 15.3 0 Calma 8 Nordeste 0 -- -- 74
2020-11-16 04:00:00 15.7 2 Noroeste 15 Sudeste 0 -- -- 74
2020-11-16 03:00:00 16.9 7 Sudeste 21 Sudeste 0 -- -- 69
2020-11-16 02:00:00 17.1 12 Sudeste 23 Sudeste 0 -- -- 67
2020-11-16 01:00:00 17.2 10 Sudeste 18 Sudeste 0 -- -- 67
2020-11-16 00:00:00 17.4 13 Sudeste 22 Sudeste 0 -- -- 68
2020-11-15 23:00:00 16.9 13 Sudeste 19 Sudeste 0 -- -- 71
2020-11-15 22:00:00 18 14 Sudeste 22 Sudeste 0 -- -- 67
2020-11-15 21:00:00 18.4 13 Sudeste 22 Este 0 -- -- 69
2020-11-15 20:00:00 19.1 14 Sudeste 26 Sudeste 0 -- -- 68
2020-11-15 19:00:00 20.4 17 Sudeste 24 Nordeste 0 -- -- 69
2020-11-15 18:00:00 22.7 10 Sudeste 15 Sudeste 0 -- -- 58
2020-11-15 17:00:00 25.3 6 Sur 12 Sudoeste 0 -- -- 50
2020-11-15 16:00:00 26 6 Sur 16 Sur 0 -- -- 49
2020-11-15 15:00:00 25.4 10 Sur 18 Sudoeste 0 -- -- 54
2020-11-15 14:00:00 24.8 9 Sur 15 Sur 0 -- -- 54
2020-11-15 13:00:00 23.9 9 Sur 17 Sudeste 0 -- -- 63
2020-11-15 12:00:00 22 12 Este 23 Sudeste 0 -- -- 63
2020-11-15 11:00:00 18.9 2 Noroeste 10 Sudeste 0 -- -- 84
2020-11-15 10:00:00 16 0 Calma 4 Sudoeste 0 -- -- 89
2020-11-15 09:00:00 13.8 0 Calma 4 Noroeste 0 -- -- 93
2020-11-15 08:00:00 13.3 0 Calma 6 Este 0 -- -- 93
2020-11-15 07:00:00 13.9 0 Calma 19 Este 0 -- -- 90
2020-11-15 06:00:00 13.7 3 Este 19 Este 0 -- -- 92
2020-11-15 05:00:00 13.7 0 Calma 9 Nordeste 0 -- -- 93
2020-11-15 04:00:00 13.8 4 Este 19 Este 0 -- -- 92
2020-11-15 03:00:00 13.8 3 Sudoeste 17 Este 0 -- -- 93
2020-11-15 02:00:00 13.8 5 Este 13 Este 0 -- -- 94
2020-11-15 01:00:00 14.2 4 Este 9 Este 0 -- -- 94
2020-11-15 00:00:00 14.4 0 Calma 5 Este 0 -- -- 94
2020-11-14 23:00:00 15.3 4 Este 9 Sudeste 0 -- -- 93
2020-11-14 22:00:00 15.9 5 Este 13 Este 0.2 -- -- 92
2020-11-14 21:00:00 16.6 4 Este 11 Este 0 -- -- 90
2020-11-14 20:00:00 16.7 5 Este 10 Sudeste 0 -- -- 90
2020-11-14 19:00:00 16.8 7 Sudeste 12 Sudeste 0 -- -- 91
2020-11-14 18:00:00 17.4 3 Sudeste 10 Sudoeste 0.2 -- -- 87
2020-11-14 17:00:00 18.6 2 Sur 9 Sudoeste 0 -- -- 78
2020-11-14 16:00:00 19 6 Sudoeste 18 Sur 0 -- -- 75
2020-11-14 15:00:00 19 8 Sur 16 Sur 0 -- -- 77
2020-11-14 14:00:00 18.6 10 Sur 24 Sudeste 0 -- -- 76
2020-11-14 13:00:00 17.8 10 Sur 15 Sur 0 -- -- 84
2020-11-14 12:00:00 17.9 12 Sur 18 Sudeste 0 -- -- 80
2020-11-14 11:00:00 16.9 12 Sudeste 20 Sudeste 0 -- -- 81
2020-11-14 10:00:00 16 12 Sur 22 Sudeste 0.6 -- -- 86
2020-11-14 09:00:00 15.9 9 Sudeste 18 Sudeste 1.2 -- -- 87
2020-11-14 08:00:00 16.5 11 Sudeste 19 Sudeste 0 -- -- 82
2020-11-14 07:00:00 16.6 9 Sudeste 18 Sudeste 0 -- -- 81
2020-11-14 06:00:00 15.7 8 Sudeste 12 Sudeste 0.2 -- -- 87
2020-11-14 05:00:00 16.3 3 Sur 16 Sur 0 -- -- 82
2020-11-14 04:00:00 16.7 8 Sur 19 Sur 0 -- -- 77
2020-11-14 03:00:00 16.7 7 Sur 17 Sur 0 -- -- 75
2020-11-14 02:00:00 16.3 12 Sudeste 18 Sur 0 -- -- 78
2020-11-14 01:00:00 16.7 10 Sur 24 Sudoeste 0 -- -- 77
2020-11-14 00:00:00 16.9 14 Sur 21 Sur 0 -- -- 75
2020-11-13 23:00:00 16.8 9 Sur 18 Sur 0 -- -- 75
2020-11-13 22:00:00 16.9 3 Sudeste 22 Sudeste 0 -- -- 75
2020-11-13 21:00:00 17.3 8 Sur 17 Sudeste 0 -- -- 72
2020-11-13 20:00:00 17.4 12 Sur 20 Sudeste 0 -- -- 74
2020-11-13 19:00:00 17.8 9 Sudeste 19 Sudeste 0 -- -- 72
2020-11-13 18:00:00 18.3 11 Sudeste 23 Este 0 -- -- 71
2020-11-13 17:00:00 18.7 8 Sudeste 24 Sudeste 0 -- -- 70
2020-11-13 16:00:00 19.4 12 Sudeste 27 Sudeste 0 -- -- 67
2020-11-13 15:00:00 20 16 Este 28 Este 0 -- -- 65
2020-11-13 14:00:00 19.6 15 Sudeste 27 Este 0 -- -- 65
2020-11-13 13:00:00 20.5 12 Sur 23 Sur 0 -- -- 62
2020-11-13 12:00:00 20.5 14 Sur 25 Sur 0 -- -- 60
2020-11-13 11:00:00 19.6 8 Este 23 Este 0 -- -- 62
2020-11-13 10:00:00 18.3 11 Sudeste 27 Este 0 -- -- 66
2020-11-13 09:00:00 16.9 17 Sudeste 31 Este 0 -- -- 71
2020-11-13 08:00:00 16.7 17 Este 32 Este 0 -- -- 69
2020-11-13 07:00:00 17 18 Este 35 Este 0 -- -- 66
2020-11-13 06:00:00 17.3 18 Este 38 Este 0 -- -- 63
2020-11-13 05:00:00 17.1 19 Este 40 Sudeste 0 -- -- 65
2020-11-13 04:00:00 16.7 13 Sudeste 39 Sudeste 0 -- -- 66
2020-11-13 03:00:00 16.4 18 Sudeste 35 Este 0 -- -- 66
2020-11-13 02:00:00 16 13 Sudeste 31 Este 0 -- -- 69
2020-11-13 01:00:00 15.9 15 Sudeste 27 Sudeste 0 -- -- 70
2020-11-13 00:00:00 16.4 12 Sudeste 26 Este 0 -- -- 68
2020-11-12 23:00:00 16.2 12 Sudeste 24 Sudeste 0 -- -- 69
2020-11-12 22:00:00 15.5 7 Sudeste 17 Sudeste 0 -- -- 73
2020-11-12 21:00:00 14.6 7 Sudeste 19 Este 0 -- -- 76
2020-11-12 20:00:00 14.9 9 Sudeste 14 Sudeste 0 -- -- 74
2020-11-12 19:00:00 16.9 6 Sudeste 12 Este 0 -- -- 66
2020-11-12 18:00:00 18.5 7 Sur 17 Sudeste 0 -- -- 63
2020-11-12 17:00:00 19 15 Sudeste 28 Sudeste 0 -- -- 58
2020-11-12 16:00:00 19.4 14 Sudeste 34 Sudeste 0 -- -- 58
2020-11-12 15:00:00 21.2 15 Sur 30 Sudeste 0 -- -- 53
2020-11-12 14:00:00 21 17 Sur 30 Sur 0 -- -- 54
2020-11-12 13:00:00 20.7 14 Sur 27 Sur 0 -- -- 55
2020-11-12 12:00:00 19.1 14 Sur 28 Sur 0 -- -- 58
2020-11-12 11:00:00 19.5 11 Sur 19 Sur 0 -- -- 58
2020-11-12 10:00:00 15.8 4 Sudeste 13 Sudeste 0 -- -- 67
2020-11-12 09:00:00 13.3 4 Sudeste 17 Sudeste 0 -- -- 76
2020-11-12 08:00:00 11 3 Noroeste 15 Sudeste 0 -- -- 81
2020-11-12 07:00:00 12 5 Este 10 Este 0 -- -- 77
2020-11-12 06:00:00 12 7 Este 11 Sudeste 0 -- -- 77
2020-11-12 05:00:00 12.3 5 Este 12 Sudeste 0 -- -- 75
2020-11-12 04:00:00 12.5 6 Este 11 Este 0 -- -- 74
2020-11-12 03:00:00 12.9 2 Oeste 10 Sudeste 0 -- -- 73
2020-11-12 02:00:00 13.4 3 Este 6 Sur 0 -- -- 71
2020-11-12 01:00:00 13.1 3 Sudeste 6 Sudeste 0 -- -- 72
2020-11-12 00:00:00 13.4 2 Sudeste 11 Sudeste 0 -- -- 70
2020-11-11 23:00:00 12.1 7 Sudeste 13 Este 0 -- -- 76
2020-11-11 22:00:00 12.5 2 Este 9 Este 0 -- -- 77
2020-11-11 21:00:00 12.8 7 Sudeste 10 Sudeste 0 -- -- 75
2020-11-11 20:00:00 15.1 7 Este 10 Este 0 -- -- 67
2020-11-11 19:00:00 16.5 2 Sur 15 Este 0 -- -- 63
2020-11-11 18:00:00 18.3 6 Este 13 Sudeste 0 -- -- 58
2020-11-11 17:00:00 19.3 4 Sudoeste 25 Sudeste 0 -- -- 59
2020-11-11 16:00:00 21 11 Sur 26 Sudeste 0 -- -- 51
2020-11-11 15:00:00 20.9 18 Sudeste 32 Sudeste 0 -- -- 51
2020-11-11 14:00:00 20.8 19 Sur 34 Sudeste 0 -- -- 52
2020-11-11 13:00:00 21.2 11 Sudeste 28 Sudeste 0 -- -- 49
2020-11-11 12:00:00 20.3 15 Sudeste 30 Sudeste 0 -- -- 54
2020-11-11 11:00:00 19.2 20 Sudeste 30 Sudeste 0 -- -- 55
2020-11-11 10:00:00 17.6 9 Sudeste 17 Sudeste 0 -- -- 62
2020-11-11 09:00:00 13.8 3 Noroeste 8 Sudeste 0 -- -- 69
2020-11-11 08:00:00 12.7 3 Sudeste 8 Sur 0 -- -- 73
2020-11-11 07:00:00 11.8 0 Calma 6 Sur 0 -- -- 77
2020-11-11 06:00:00 11.9 0 Calma 6 Norte 0 -- -- 75
2020-11-11 05:00:00 11.7 0 Calma 5 Norte 0 -- -- 77
2020-11-11 04:00:00 11 4 Nordeste 12 Este 0 -- -- 82
2020-11-11 03:00:00 11.7 7 Este 10 Este 0 -- -- 81
2020-11-11 02:00:00 11.1 2 Nordeste 6 Sudeste 0 -- -- 83
2020-11-11 01:00:00 12.1 3 Este 10 Este 0 -- -- 79
2020-11-11 00:00:00 12.3 3 Este 7 Norte 0 -- -- 82
2020-11-10 23:00:00 12.7 2 Sur 12 Este 0 -- -- 82
2020-11-10 22:00:00 13.5 0 Calma 9 Este 0 -- -- 83
2020-11-10 21:00:00 14.7 0 Calma 13 Este 0 -- -- 79
2020-11-10 20:00:00 15.3 5 Este 12 Este 0 -- -- 77
2020-11-10 19:00:00 17.5 5 Sur 8 Sur 0 -- -- 70
2020-11-10 18:00:00 20.3 3 Noroeste 10 Sudoeste 0 -- -- 57
2020-11-10 17:00:00 22 2 Oeste 9 Oeste 0 -- -- 51
2020-11-10 16:00:00 21.4 4 Noroeste 14 Oeste 0 -- -- 52
2020-11-10 15:00:00 21.6 5 Noroeste 13 Noroeste 0 -- -- 51
2020-11-10 14:00:00 21.3 5 Oeste 13 Oeste 0 -- -- 48
2020-11-10 13:00:00 20.4 5 Noroeste 10 Oeste 0 -- -- 47
2020-11-10 12:00:00 18.3 3 Noroeste 6 Norte 0 -- -- 59
2020-11-10 11:00:00 14.7 5 Noroeste 6 Noroeste 0 -- -- 77
2020-11-10 10:00:00 12.5 0 Calma 4 Sudeste 0 -- -- 86
2020-11-10 09:00:00 9.6 0 Calma 5 Este 0 -- -- 93
2020-11-10 08:00:00 7.9 0 Calma 4 Este 0 -- -- 94
2020-11-10 07:00:00 7.8 0 Calma 10 Este 0 -- -- 93
2020-11-10 06:00:00 8.1 2 Sudeste 10 Este 0 -- -- 94
2020-11-10 05:00:00 8.2 2 Nordeste 6 Sudeste 0 -- -- 93
2020-11-10 04:00:00 8.5 2 Este 10 Este 0 -- -- 92
2020-11-10 03:00:00 9 4 Este 9 Este 0 -- -- 92
2020-11-10 02:00:00 9 7 Sudeste 12 Sudeste 0 -- -- 90
2020-11-10 01:00:00 9.7 7 Este 10 Este 0 -- -- 89
2020-11-10 00:00:00 10.5 2 Este 5 Sudeste 0 -- -- 88
2020-11-09 23:00:00 11.2 0 Calma 6 Este 0 -- -- 86
2020-11-09 22:00:00 12.2 5 Este 10 Este 0 -- -- 84
2020-11-09 21:00:00 12.9 4 Este 7 Este 0 -- -- 83
2020-11-09 20:00:00 14 2 Nordeste 5 Este 0 -- -- 80
2020-11-09 19:00:00 15.6 0 Calma 10 Norte 0 -- -- 74
2020-11-09 18:00:00 18.1 7 Noroeste 12 Norte 0 -- -- 64
2020-11-09 17:00:00 19 6 Noroeste 18 Noroeste 0 -- -- 63
2020-11-09 16:00:00 19.9 9 Noroeste 21 Oeste 0 -- -- 62
2020-11-09 15:00:00 20.1 6 Noroeste 13 Noroeste 0 -- -- 54
2020-11-09 14:00:00 19.6 6 Oeste 15 Oeste 0 -- -- 68
2020-11-09 13:00:00 18 3 Noroeste 9 Norte 0 -- -- 78
2020-11-09 12:00:00 17.2 2 Noroeste 7 Sudoeste 0 -- -- 77
2020-11-09 11:00:00 15.3 2 Sudoeste 21 Este 0 -- -- 88
2020-11-09 10:00:00 13.9 14 Este 23 Este 0 -- -- 90
2020-11-09 09:00:00 12.9 7 Nordeste 12 Norte 0.6 -- -- 94
2020-11-09 08:00:00 11.9 3 Norte 12 Sudeste 0 -- -- 89
2020-11-09 07:00:00 11.3 3 Este 18 Sudeste 0 -- -- 89
2020-11-09 06:00:00 11.1 3 Este 14 Sudeste 0 -- -- 89
2020-11-09 05:00:00 11.2 3 Este 16 Sudeste 0 -- -- 88
2020-11-09 04:00:00 11.5 10 Sudeste 18 Sudeste 0 -- -- 88
2020-11-09 03:00:00 10.8 3 Sudeste 10 Sudeste 0 -- -- 89
2020-11-09 02:00:00 11.9 6 Sudeste 11 Sudeste 0 -- -- 86
2020-11-09 01:00:00 11.9 0 Calma 14 Sudeste 0 -- -- 87
2020-11-09 00:00:00 12 10 Sudeste 17 Sudeste 0 -- -- 86
2020-11-08 23:00:00 12.5 5 Este 10 Este 0 -- -- 84
2020-11-08 22:00:00 13.1 4 Este 9 Sudeste 0 -- -- 83
2020-11-08 21:00:00 14 3 Este 7 Este 0 -- -- 80
2020-11-08 20:00:00 15.8 4 Sudeste 9 Sur 0 -- -- 75
2020-11-08 19:00:00 17.3 4 Sudeste 12 Sur 0 -- -- 69
2020-11-08 18:00:00 19.3 6 Sur 22 Sudeste 0 -- -- 62
2020-11-08 17:00:00 21.4 7 Sur 21 Sur 0 -- -- 55
2020-11-08 16:00:00 21 12 Sudeste 22 Sudeste 0 -- -- 55
2020-11-08 15:00:00 20.8 8 Sur 24 Sudoeste 0 -- -- 55
2020-11-08 14:00:00 21.9 13 Sudoeste 23 Sudoeste 0 -- -- 50
2020-11-08 13:00:00 21.1 14 Sur 29 Sur 0 -- -- 53
2020-11-08 12:00:00 20.4 10 Sur 23 Sudeste 0 -- -- 61
2020-11-08 11:00:00 18.9 9 Sur 19 Sur 0 -- -- 66
2020-11-08 10:00:00 16.7 6 Sur 13 Sudoeste 0 -- -- 73
2020-11-08 09:00:00 15.6 5 Sudeste 19 Sudeste 0 -- -- 76
2020-11-08 08:00:00 14.9 12 Este 21 Sudeste 0 -- -- 76
2020-11-08 07:00:00 14.1 14 Sudeste 23 Sur 0 -- -- 79
2020-11-08 06:00:00 13.1 12 Sudeste 22 Sudeste 0 -- -- 81
2020-11-08 05:00:00 13.1 15 Sudeste 22 Sudeste 0 -- -- 82
2020-11-08 04:00:00 13 12 Sudeste 19 Sudeste 0 -- -- 83
2020-11-08 03:00:00 12.5 3 Sudeste 15 Sudeste 0 -- -- 84
2020-11-08 02:00:00 12.1 4 Sudeste 13 Este 0 -- -- 85
2020-11-08 01:00:00 12 5 Sudeste 14 Sudeste 0 -- -- 86
2020-11-08 00:00:00 12.1 4 Sudeste 12 Sudeste 0 -- -- 85
2020-11-07 23:00:00 13.3 5 Este 13 Este 0 -- -- 79
2020-11-07 22:00:00 13.2 7 Este 13 Este 0 -- -- 82
2020-11-07 21:00:00 13.6 8 Este 13 Este 0 -- -- 83
2020-11-07 20:00:00 14.1 9 Sudeste 14 Sudeste 0 -- -- 82
2020-11-07 19:00:00 16.5 4 Sudeste 8 Este 0 -- -- 71
2020-11-07 18:00:00 18.7 3 Sur 17 Sudoeste 0 -- -- 65
2020-11-07 17:00:00 20 9 Sudoeste 18 Sudoeste 0 -- -- 58
2020-11-07 16:00:00 19.1 8 Oeste 23 Sudoeste 0 -- -- 61
2020-11-07 15:00:00 19.3 9 Oeste 25 Sudoeste 0 -- -- 64
2020-11-07 14:00:00 18.5 7 Oeste 21 Sudoeste 0 -- -- 68
2020-11-07 13:00:00 18.6 12 Sur 23 Sudoeste 0 -- -- 67
2020-11-07 12:00:00 17.7 8 Sur 18 Sur 0 -- -- 70
2020-11-07 11:00:00 17 9 Sur 15 Sur 0 -- -- 74
2020-11-07 10:00:00 16 10 Sudeste 16 Sur 0 -- -- 80
2020-11-07 09:00:00 14.7 4 Sur 13 Sudoeste 0 -- -- 87
2020-11-07 08:00:00 14.6 7 Sudeste 21 Sur 0.4 -- -- 86
2020-11-07 07:00:00 14.7 16 Sudoeste 44 Sur 4.2 -- -- 89
2020-11-07 06:00:00 15.6 21 Sur 37 Sudeste 0.4 -- -- 79
2020-11-07 05:00:00 16.6 28 Sudeste 60 Sudeste 0 -- -- 71
2020-11-07 04:00:00 16.1 10 Sur 64 Sudeste 0 -- -- 75
2020-11-07 03:00:00 16.2 30 Sudeste 57 Sudeste 5.6 -- -- 73
2020-11-07 02:00:00 17.8 23 Sudeste 51 Sudeste 0 -- -- 66
2020-11-07 01:00:00 18.2 30 Sudeste 67 Sudeste 0 -- -- 61
2020-11-07 00:00:00 18.6 32 Sudeste 62 Sudeste 0 -- -- 57
2020-11-06 23:00:00 19.1 32 Sudeste 55 Sudeste 0 -- -- 54
2020-11-06 22:00:00 18.4 31 Sudeste 59 Este 0.2 -- -- 58
2020-11-06 21:00:00 17.3 28 Sudeste 44 Sur 1.4 -- -- 67
2020-11-06 20:00:00 18.4 16 Sudeste 30 Sudeste 0 -- -- 62
2020-11-06 19:00:00 19.4 4 Oeste 11 Sudoeste 0 -- -- 59
2020-11-06 18:00:00 20.9 3 Sudoeste 23 Sudeste 0 -- -- 52
2020-11-06 17:00:00 21.6 14 Sur 20 Sur 0 -- -- 49
2020-11-06 16:00:00 22.4 13 Sudeste 45 Sudeste 0 -- -- 45
2020-11-06 15:00:00 23.3 17 Sur 42 Sudeste 0 -- -- 45
2020-11-06 14:00:00 24.6 26 Sudeste 47 Sudeste 0 -- -- 37
2020-11-06 13:00:00 24.2 33 Sudeste 47 Sudeste 0 -- -- 38
2020-11-06 12:00:00 24.9 30 Sudeste 49 Sudeste 0 -- -- 36
2020-11-06 11:00:00 24.5 26 Sudeste 53 Sudeste 0 -- -- 37
2020-11-06 10:00:00 23.2 35 Sudeste 57 Sudeste 0 -- -- 39
2020-11-06 09:00:00 22.7 36 Sudeste 59 Sudeste 0 -- -- 39
2020-11-06 08:00:00 22.2 31 Sudeste 57 Sudeste 0 -- -- 41
2020-11-06 07:00:00 22 33 Sudeste 54 Sudeste 0 -- -- 42
2020-11-06 06:00:00 21.5 16 Este 46 Sudeste 0 -- -- 42
2020-11-06 05:00:00 19 14 Sudeste 28 Este 0 -- -- 48
2020-11-06 04:00:00 15.1 5 Norte 10 Noroeste 0 -- -- 71
2020-11-06 03:00:00 16 2 Nordeste 9 Sudeste 0 -- -- 71
2020-11-06 02:00:00 16.5 6 Este 22 Nordeste 0 -- -- 68
2020-11-06 01:00:00 18.3 18 Sur 47 Sudeste 0 -- -- 60
2020-11-06 00:00:00 20.3 29 Sudeste 42 Sudeste 0 -- -- 48
2020-11-05 23:00:00 20.2 28 Sudeste 44 Sudeste 0 -- -- 49
2020-11-05 22:00:00 19.7 25 Sudeste 38 Sudeste 0 -- -- 50
2020-11-05 21:00:00 19.3 22 Sudeste 58 Sudeste 0 -- -- 53
2020-11-05 20:00:00 19.9 32 Sudeste 49 Sudeste 0 -- -- 50
2020-11-05 19:00:00 19.4 27 Sudeste 40 Sudeste 0 -- -- 53
2020-11-05 18:00:00 19.9 23 Sudeste 45 Sudeste 0 -- -- 52
2020-11-05 17:00:00 20.4 30 Sudeste 49 Sudeste 0 -- -- 51
2020-11-05 16:00:00 21.4 21 Sudeste 37 Sudeste 0 -- -- 53
2020-11-05 15:00:00 21.5 16 Sudeste 34 Sur 0 -- -- 52
2020-11-05 14:00:00 20.4 22 Sur 44 Sudeste 0 -- -- 57
2020-11-05 13:00:00 18.7 24 Sudeste 49 Sudeste 0 -- -- 67
2020-11-05 12:00:00 17.3 25 Sudeste 38 Sudeste 1.6 -- -- 73
2020-11-05 11:00:00 15.4 15 Sudeste 49 Este 2.2 -- -- 82
2020-11-05 10:00:00 16 17 Sudeste 35 Sudeste 0.4 -- -- 78
2020-11-05 09:00:00 15.6 10 Sudeste 40 Este 0 -- -- 81
2020-11-05 08:00:00 15.7 19 Sudeste 57 Sudeste 0 -- -- 76
2020-11-05 07:00:00 16 18 Sudeste 38 Sudeste 0 -- -- 75
2020-11-05 06:00:00 15.7 24 Sudeste 45 Sudeste 7.2 -- -- 76
2020-11-05 05:00:00 15.4 20 Sur 60 Sur 0.4 -- -- 81
2020-11-05 04:00:00 16.6 35 Sudeste 71 Sudeste 0.2 -- -- 68
2020-11-05 03:00:00 15.7 23 Sudeste 53 Sudeste 0 -- -- 73
2020-11-05 02:00:00 15.5 23 Sudeste 42 Sur 0.2 -- -- 77
2020-11-05 01:00:00 14 6 Sudeste 17 Sur 7.6 -- -- 90
2020-11-05 00:00:00 15.1 18 Sudeste 48 Este 3.4 -- -- 81
2020-11-04 23:00:00 17.9 22 Sudeste 51 Sudeste 0 -- -- 62
2020-11-04 22:00:00 17.5 24 Sudeste 46 Sudeste 0 -- -- 59
2020-11-04 21:00:00 17 19 Sudeste 45 Sudeste 0 -- -- 63
2020-11-04 20:00:00 15.6 4 Sudoeste 17 Sudoeste 0 -- -- 72
2020-11-04 19:00:00 15.4 0 Calma 9 Sudoeste 0 -- -- 76
2020-11-04 18:00:00 17.2 2 Este 26 Sudeste 0 -- -- 66
2020-11-04 17:00:00 17.2 11 Sur 19 Sur 0 -- -- 72
2020-11-04 16:00:00 17.1 6 Sudoeste 40 Sudeste 0.4 -- -- 75
2020-11-04 15:00:00 16.9 28 Sudeste 42 Sudeste 0 -- -- 67
2020-11-04 14:00:00 18.2 14 Sur 35 Sudeste 0 -- -- 63
2020-11-04 13:00:00 18.9 15 Sudeste 27 Sudeste 0 -- -- 62
2020-11-04 12:00:00 18.2 3 Sur 10 Sudoeste 0 -- -- 66
2020-11-04 11:00:00 16.8 5 Sudoeste 9 Sur 0 -- -- 73
2020-11-04 10:00:00 15.4 0 Calma 10 Nordeste 0 -- -- 76
2020-11-04 09:00:00 15.1 5 Este 29 Este 0.4 -- -- 77
2020-11-04 08:00:00 15.1 13 Este 28 Este 0 -- -- 74
2020-11-04 07:00:00 15.2 12 Sudeste 28 Este 0 -- -- 75
2020-11-04 06:00:00 15.3 18 Este 30 Este 0 -- -- 78
2020-11-04 05:00:00 15.2 18 Sudeste 27 Sudeste 0 -- -- 79
2020-11-04 04:00:00 15 18 Sudeste 29 Este 0 -- -- 83
2020-11-04 03:00:00 15.4 9 Sudeste 27 Sudeste 0 -- -- 79
2020-11-04 02:00:00 15.5 9 Sudeste 14 Este 0 -- -- 80
2020-11-04 01:00:00 15.8 6 Sudeste 9 Sudeste 0 -- -- 81
2020-11-04 00:00:00 16.1 3 Sur 8 Sudeste 0 -- -- 81
2020-11-03 23:00:00 16.8 5 Este 9 Sudeste 0 -- -- 75
2020-11-03 22:00:00 17.1 4 Sudeste 9 Sudeste 0 -- -- 73
2020-11-03 21:00:00 17.8 5 Sudeste 9 Norte 0 -- -- 70
2020-11-03 20:00:00 19 5 Norte 10 Noroeste 0 -- -- 69
2020-11-03 19:00:00 19.9 4 Noroeste 6 Noroeste 0 -- -- 60
2020-11-03 18:00:00 21.6 0 Calma 5 Noroeste 0 -- -- 55
2020-11-03 17:00:00 22.9 3 Oeste 12 Oeste 0 -- -- 49
2020-11-03 16:00:00 23.8 6 Oeste 15 Oeste 0 -- -- 47
2020-11-03 15:00:00 24.2 5 Oeste 13 Oeste 0 -- -- 43
2020-11-03 14:00:00 24.6 5 Oeste 14 Noroeste 0 -- -- 39
2020-11-03 13:00:00 23.6 4 Oeste 10 Oeste 0 -- -- 44
2020-11-03 12:00:00 22.5 4 Noroeste 9 Oeste 0 -- -- 49
2020-11-03 11:00:00 20.1 2 Noroeste 8 Oeste 0 -- -- 53
2020-11-03 10:00:00 16.1 2 Noroeste 6 Este 0 -- -- 67
2020-11-03 09:00:00 13.5 2 Nordeste 6 Norte 0 -- -- 79
2020-11-03 08:00:00 12.2 5 Este 8 Este 0 -- -- 78
2020-11-03 07:00:00 11.6 5 Este 11 Sudeste 0 -- -- 80
2020-11-03 06:00:00 12.4 6 Este 10 Este 0 -- -- 77
2020-11-03 05:00:00 11.9 4 Este 9 Norte 0 -- -- 81
2020-11-03 04:00:00 13 3 Nordeste 10 Este 0 -- -- 76
2020-11-03 03:00:00 13.3 0 Calma 9 Este 0 -- -- 75
2020-11-03 02:00:00 12.9 0 Calma 7 Este 0 -- -- 76
2020-11-03 01:00:00 13.6 3 Nordeste 8 Este 0 -- -- 74
2020-11-03 00:00:00 14.5 2 Sudeste 10 Sudeste 0 -- -- 70
2020-11-02 23:00:00 15.3 4 Este 10 Este 0 -- -- 67
2020-11-02 22:00:00 16.4 0 Calma 9 Este 0 -- -- 63
2020-11-02 21:00:00 17.2 3 Sudeste 10 Sudeste 0 -- -- 61
2020-11-02 20:00:00 19 0 Calma 9 Este 0 -- -- 55
2020-11-02 19:00:00 22 7 Este 10 Este 0 -- -- 45
2020-11-02 18:00:00 25.2 3 Noroeste 14 Noroeste 0 -- -- 38
2020-11-02 17:00:00 26.8 7 Noroeste 15 Oeste 0 -- -- 36
2020-11-02 16:00:00 26.9 9 Noroeste 16 Oeste 0 -- -- 34
2020-11-02 15:00:00 26.8 7 Noroeste 16 Norte 0 -- -- 36
2020-11-02 14:00:00 26.5 9 Noroeste 18 Noroeste 0 -- -- 35
2020-11-02 13:00:00 26.4 3 Oeste 8 Sudoeste 0 -- -- 34
2020-11-02 12:00:00 24.5 2 Noroeste 5 Noroeste 0 -- -- 39
2020-11-02 11:00:00 20.4 3 Noroeste 5 Noroeste 0 -- -- 59
2020-11-02 10:00:00 17.3 0 Calma 3 Sur 0 -- -- 65
2020-11-02 09:00:00 14.5 2 Este 8 Sudeste 0 -- -- 70
2020-11-02 08:00:00 12.3 5 Este 9 Este 0 -- -- 75
2020-11-02 07:00:00 12.4 0 Calma 10 Este 0 -- -- 79
2020-11-02 06:00:00 12.6 5 Este 9 Este 0 -- -- 76
2020-11-02 05:00:00 12.9 0 Calma 10 Sudeste 0 -- -- 77
2020-11-02 04:00:00 13.4 7 Este 10 Este 0 -- -- 74
2020-11-02 03:00:00 13.9 0 Calma 4 Nordeste 0 -- -- 76
2020-11-02 02:00:00 13.8 2 Norte 6 Este 0 -- -- 78
2020-11-02 01:00:00 14.5 3 Sudeste 8 Sudeste 0 -- -- 75
2020-11-02 00:00:00 15.1 0 Calma 8 Este 0 -- -- 74
2020-11-01 23:00:00 15.7 0 Calma 9 Este 0 -- -- 72
2020-11-01 22:00:00 16.8 4 Este 9 Este 0 -- -- 68
2020-11-01 21:00:00 17.8 3 Norte 8 Norte 0 -- -- 65
2020-11-01 20:00:00 19.2 4 Este 10 Este 0 -- -- 60
2020-11-01 19:00:00 21.8 6 Este 8 Este 0 -- -- 51
2020-11-01 18:00:00 25.9 2 Oeste 12 Noroeste 0 -- -- 41
2020-11-01 17:00:00 26.5 6 Noroeste 13 Oeste 0 -- -- 40
2020-11-01 16:00:00 26.9 6 Oeste 14 Oeste 0 -- -- 36
2020-11-01 15:00:00 26.2 7 Noroeste 15 Noroeste 0 -- -- 39
2020-11-01 14:00:00 25.3 9 Noroeste 15 Noroeste 0 -- -- 44
2020-11-01 13:00:00 25.8 4 Oeste 9 Noroeste 0 -- -- 36
2020-11-01 12:00:00 23.9 3 Oeste 5 Oeste 0 -- -- 44
2020-11-01 11:00:00 20.9 2 Sur 4 Sudoeste 0 -- -- 55
2020-11-01 10:00:00 16.1 0 Calma 4 Sur 0 -- -- 71
2020-11-01 09:00:00 13.5 0 Calma 6 Este 0 -- -- 81
2020-11-01 08:00:00 12.1 0 Calma 3 Este 0 -- -- 84
2020-11-01 07:00:00 11.7 3 Este 8 Sudeste 0 -- -- 83
2020-11-01 06:00:00 11.8 2 Nordeste 9 Este 0 -- -- 85
2020-11-01 05:00:00 11.7 3 Sudeste 15 Norte 0 -- -- 86
2020-11-01 04:00:00 12.1 7 Sudeste 12 Sudeste 0 -- -- 84
2020-11-01 03:00:00 12.4 0 Calma 4 Norte 0 -- -- 86
2020-11-01 02:00:00 12.7 3 Este 8 Este 0 -- -- 84
2020-11-01 01:00:00 13 0 Calma 8 Este 0 -- -- 85
2020-11-01 00:00:00 13.6 0 Calma 10 Este 0 -- -- 83
2020-10-31 23:00:00 14.7 4 Este 6 Sudeste 0 -- -- 78
2020-10-31 22:00:00 15.8 2 Norte 10 Este 0 -- -- 73
2020-10-31 21:00:00 16.7 0 Calma 9 Este 0 -- -- 70
2020-10-31 20:00:00 18.1 3 Sudeste 10 Este 0 -- -- 64
2020-10-31 19:00:00 20.9 2 Nordeste 6 Noroeste 0 -- -- 55
2020-10-31 18:00:00 24.1 3 Oeste 12 Noroeste 0 -- -- 46
2020-10-31 17:00:00 24.7 6 Noroeste 20 Oeste 0 -- -- 42
2020-10-31 16:00:00 25.3 8 Noroeste 14 Noroeste 0 -- -- 40
2020-10-31 15:00:00 25.4 4 Oeste 14 Oeste 0 -- -- 40
2020-10-31 14:00:00 24.5 5 Oeste 11 Oeste 0 -- -- 41
2020-10-31 13:00:00 23.2 8 Sudoeste 14 Oeste 0 -- -- 47
2020-10-31 12:00:00 22 6 Noroeste 13 Oeste 0 -- -- 49
2020-10-31 11:00:00 18.9 5 Noroeste 8 Noroeste 0 -- -- 58
2020-10-31 10:00:00 16.4 3 Sur 10 Este 0 -- -- 68
2020-10-31 09:00:00 12.9 6 Este 14 Este 0 -- -- 74
2020-10-31 08:00:00 11.6 0 Calma 3 Oeste 0 -- -- 79
2020-10-31 07:00:00 11.6 0 Calma 10 Sudeste 0 -- -- 79
2020-10-31 06:00:00 12.2 8 Sudeste 11 Sudeste 0 -- -- 75
2020-10-31 05:00:00 12.7 7 Este 13 Sudeste 0 -- -- 73
2020-10-31 04:00:00 12.8 3 Sudeste 9 Sudeste 0 -- -- 72
2020-10-31 03:00:00 13.2 3 Nordeste 9 Este 0 -- -- 74
2020-10-31 02:00:00 13 8 Sudeste 10 Este 0 -- -- 74
2020-10-31 01:00:00 14 4 Este 6 Este 0 -- -- 72
2020-10-31 00:00:00 14.2 6 Este 10 Este 0 -- -- 73
2020-10-30 23:00:00 14.4 5 Sudeste 10 Este 0 -- -- 73
2020-10-30 22:00:00 15.1 6 Sudeste 9 Sudeste 0 -- -- 71
2020-10-30 21:00:00 16.1 0 Calma 14 Sudeste 0 -- -- 70
2020-10-30 20:00:00 16.4 5 Sudeste 9 Sur 0 -- -- 66
2020-10-30 19:00:00 18.6 5 Sur 10 Sur 0 -- -- 58
2020-10-30 18:00:00 21.4 6 Sur 16 Sudoeste 0 -- -- 48
2020-10-30 17:00:00 23 10 Sudoeste 18 Sudoeste 0 -- -- 43
2020-10-30 16:00:00 24.1 10 Sudoeste 22 Sudoeste 0 -- -- 40
2020-10-30 15:00:00 24.6 11 Sudoeste 21 Sudoeste 0 -- -- 37
2020-10-30 14:00:00 24 13 Sur 28 Sur 0 -- -- 39
2020-10-30 13:00:00 25.8 13 Sur 21 Sur 0 -- -- 34
2020-10-30 12:00:00 24.2 4 Noroeste 8 Norte 0 -- -- 36
2020-10-30 11:00:00 22.2 2 Oeste 5 Norte 0 -- -- 44
2020-10-30 10:00:00 18.1 3 Noroeste 6 Este 0 -- -- 62
2020-10-30 09:00:00 14.9 6 Este 12 Este 0 -- -- 63
2020-10-30 08:00:00 12.7 6 Este 13 Este 0 -- -- 70
2020-10-30 07:00:00 12.7 5 Este 12 Sudeste 0 -- -- 70
2020-10-30 06:00:00 12.7 5 Este 11 Este 0 -- -- 70
2020-10-30 05:00:00 12.5 4 Este 12 Este 0 -- -- 72
2020-10-30 04:00:00 12.7 3 Este 10 Este 0 -- -- 71
2020-10-30 03:00:00 13.1 4 Este 16 Este 0 -- -- 69
2020-10-30 02:00:00 14.1 3 Nordeste 13 Este 0 -- -- 63
2020-10-30 01:00:00 14 6 Este 12 Sudeste 0 -- -- 65
2020-10-30 00:00:00 14.4 7 Este 11 Sudeste 0 -- -- 62
2020-10-29 23:00:00 14.7 3 Este 8 Este 0 -- -- 62
2020-10-29 22:00:00 15.6 3 Este 10 Este 0 -- -- 58
2020-10-29 21:00:00 15.7 3 Sudeste 10 Este 0 -- -- 60
2020-10-29 20:00:00 17.6 0 Calma 5 Nordeste 0 -- -- 54
2020-10-29 19:00:00 19.7 0 Calma 9 Noroeste 0 -- -- 45
2020-10-29 18:00:00 23.6 5 Noroeste 14 Sur 0 -- -- 37
2020-10-29 17:00:00 26.3 4 Sur 24 Sudoeste 0 -- -- 29
2020-10-29 16:00:00 26.4 14 Sudoeste 25 Sur 0 -- -- 29
2020-10-29 15:00:00 27 7 Sudeste 19 Sudeste 0 -- -- 29
2020-10-29 14:00:00 25.7 7 Noroeste 13 Noroeste 0 -- -- 37
2020-10-29 13:00:00 24.3 3 Noroeste 8 Noroeste 0 -- -- 39
2020-10-29 12:00:00 22.4 4 Noroeste 8 Sudoeste 0 -- -- 43
2020-10-29 11:00:00 19.3 3 Noroeste 5 Oeste 0 -- -- 53
2020-10-29 10:00:00 16.6 0 Calma 4 Este 0 -- -- 64
2020-10-29 09:00:00 13.4 3 Sudeste 9 Este 0 -- -- 77
2020-10-29 08:00:00 11 7 Sudeste 9 Este 0 -- -- 85
2020-10-29 07:00:00 10.9 0 Calma 9 Sudeste 0 -- -- 88
2020-10-29 06:00:00 11.2 6 Sudeste 10 Sudeste 0 -- -- 86
2020-10-29 05:00:00 11.2 3 Este 9 Sudeste 0 -- -- 88
2020-10-29 04:00:00 11.9 0 Calma 9 Sudeste 0 -- -- 87
2020-10-29 03:00:00 11.8 0 Calma 11 Este 0 -- -- 88
2020-10-29 02:00:00 12.5 4 Este 6 Este 0 -- -- 86
2020-10-29 01:00:00 12.5 2 Noroeste 11 Este 0 -- -- 86
2020-10-29 00:00:00 13.1 4 Este 10 Este 0 -- -- 85
2020-10-28 23:00:00 13.6 3 Este 9 Este 0 -- -- 83
2020-10-28 22:00:00 14.2 6 Este 12 Este 0 -- -- 81
2020-10-28 21:00:00 15.4 3 Este 9 Este 0 -- -- 76
2020-10-28 20:00:00 17 5 Este 9 Este 0 -- -- 70
2020-10-28 19:00:00 19.1 4 Sudeste 9 Sur 0 -- -- 61
2020-10-28 18:00:00 22.2 5 Sudoeste 15 Sudoeste 0 -- -- 53
2020-10-28 17:00:00 23.4 6 Oeste 13 Oeste 0 -- -- 48
2020-10-28 16:00:00 23.3 9 Sudoeste 18 Sudoeste 0 -- -- 50
2020-10-28 15:00:00 22.8 9 Oeste 21 Oeste 0 -- -- 49
2020-10-28 14:00:00 22.5 6 Oeste 12 Oeste 0 -- -- 42
2020-10-28 13:00:00 21.4 5 Oeste 10 Oeste 0 -- -- 44
2020-10-28 12:00:00 19 4 Noroeste 6 Noroeste 0 -- -- 44
2020-10-28 11:00:00 16 3 Noroeste 6 Noroeste 0 -- -- 62
2020-10-28 10:00:00 12 2 Noroeste 5 Noroeste 0 -- -- 74
2020-10-28 09:00:00 9.7 0 Calma 8 Este 0 -- -- 84
2020-10-28 08:00:00 7.3 0 Calma 4 Este 0 -- -- 90
2020-10-28 07:00:00 7 0 Calma 6 Este 0 -- -- 90
2020-10-28 06:00:00 7.5 0 Calma 9 Este 0 -- -- 87
2020-10-28 05:00:00 7.6 2 Este 8 Este 0 -- -- 88
2020-10-28 04:00:00 7.8 2 Nordeste 9 Este 0 -- -- 87
2020-10-28 03:00:00 8.2 0 Calma 9 Este 0 -- -- 86
2020-10-28 02:00:00 8.5 2 Este 8 Este 0 -- -- 86
2020-10-28 01:00:00 8.8 6 Este 11 Sudeste 0 -- -- 84
2020-10-28 00:00:00 9.7 3 Sudeste 9 Este 0 -- -- 80
2020-10-27 23:00:00 10.2 4 Este 13 Este 0 -- -- 77
2020-10-27 22:00:00 11.4 6 Este 10 Este 0 -- -- 72
2020-10-27 21:00:00 12.2 6 Este 11 Este 0 -- -- 68
2020-10-27 20:00:00 13.3 5 Nordeste 17 Norte 0 -- -- 62
2020-10-27 19:00:00 14.5 5 Noroeste 15 Noroeste 0 -- -- 59
2020-10-27 18:00:00 17.1 10 Noroeste 25 Noroeste 0 -- -- 49
2020-10-27 17:00:00 18.2 10 Noroeste 26 Noroeste 0 -- -- 47
2020-10-27 16:00:00 18.4 12 Noroeste 24 Noroeste 0 -- -- 47
2020-10-27 15:00:00 19.3 14 Norte 23 Norte 0 -- -- 41
2020-10-27 14:00:00 18.5 13 Noroeste 26 Noroeste 0 -- -- 41
2020-10-27 13:00:00 18 17 Noroeste 25 Norte 0 -- -- 44
2020-10-27 12:00:00 16.9 2 Oeste 7 Oeste 0 -- -- 49
2020-10-27 11:00:00 13.6 3 Oeste 5 Oeste 0 -- -- 65
2020-10-27 10:00:00 10.4 0 Calma 9 Norte 0 -- -- 81
2020-10-27 09:00:00 7.8 0 Calma 4 Sudeste 0 -- -- 91
2020-10-27 08:00:00 5.9 0 Calma 6 Este 0 -- -- 93
2020-10-27 07:00:00 6.4 0 Calma 5 Este 0 -- -- 92
2020-10-27 06:00:00 6.4 4 Este 9 Este 0 -- -- 91
2020-10-27 05:00:00 6.6 2 Sudeste 6 Sudeste 0 -- -- 92
2020-10-27 04:00:00 7.4 0 Calma 6 Sudeste 0 -- -- 92
2020-10-27 03:00:00 7.6 3 Sudeste 6 Sur 0 -- -- 91
2020-10-27 02:00:00 7.7 2 Sudeste 8 Sur 0 -- -- 89
2020-10-27 01:00:00 8.4 0 Calma 9 Este 0 -- -- 89
2020-10-27 00:00:00 8.6 3 Este 6 Nordeste 0 -- -- 87
2020-10-26 23:00:00 9.2 0 Calma 7 Este 0 -- -- 85
2020-10-26 22:00:00 9.7 4 Este 9 Este 0 -- -- 82
2020-10-26 21:00:00 11 0 Calma 8 Sudeste 0 -- -- 77
2020-10-26 20:00:00 11.9 5 Este 10 Este 0 -- -- 73
2020-10-26 19:00:00 13.4 3 Nordeste 14 Noroeste 0 -- -- 70
2020-10-26 18:00:00 15.5 7 Noroeste 24 Noroeste 0 -- -- 56
2020-10-26 17:00:00 16 13 Noroeste 25 Noroeste 0 -- -- 52
2020-10-26 16:00:00 16.3 14 Norte 29 Norte 0 -- -- 50
2020-10-26 15:00:00 16.6 15 Noroeste 28 Noroeste 0 -- -- 57
2020-10-26 14:00:00 15.4 19 Noroeste 31 Noroeste 0 -- -- 58
2020-10-26 13:00:00 15.8 12 Noroeste 28 Noroeste 0 -- -- 62
2020-10-26 12:00:00 14.8 14 Noroeste 30 Noroeste 0 -- -- 64
2020-10-26 11:00:00 14 13 Norte 25 Norte 0 -- -- 73
2020-10-26 10:00:00 12.9 12 Noroeste 22 Norte 0 -- -- 81
2020-10-26 09:00:00 11.5 10 Noroeste 18 Noroeste 0 -- -- 85
2020-10-26 08:00:00 10.6 5 Noroeste 14 Norte 0 -- -- 90
2020-10-26 07:00:00 11.6 6 Norte 17 Noroeste 0 -- -- 89
2020-10-26 06:00:00 12.7 11 Noroeste 19 Norte 0 -- -- 90
2020-10-26 05:00:00 13.2 8 Noroeste 15 Norte 0 -- -- 93
2020-10-26 04:00:00 13.4 7 Noroeste 14 Norte 0 -- -- 93
2020-10-26 03:00:00 13.3 11 Norte 18 Norte 0.6 -- -- 92
2020-10-26 02:00:00 13.2 7 Noroeste 32 Noroeste 1.2 -- -- 94
2020-10-26 01:00:00 14 12 Noroeste 41 Oeste 5 -- -- 94
2020-10-26 00:00:00 16.6 11 Sudoeste 28 Sudoeste 0 -- -- 87